Time;durP1;ratioP1;P1;durP2;ratioP2;P2;SDS_P1;SDS_P2;PMS_P1;PMS_P2;Temp;Humidity;BMP_temperature;BMP_pressure;BME280_temperature;BME280_humidity;BME280_pressure;Samples;Min_cycle;Max_cycle;Signal;HPM_P1;HPM_P2
2022/05/13 00:00:58;;;;;;;6.70;4.40;;;;;;;18.42;39.93;100454.30;117588;1185;21836;-56
2022/05/13 00:03:26;;;;;;;6.40;4.30;;;;;;;18.40;39.97;100456.50;117430;1185;23470;-51
2022/05/13 00:05:55;;;;;;;11.50;4.80;;;;;;;18.38;39.94;100454.48;117362;1185;23622;-57
2022/05/13 00:08:23;;;;;;;6.80;4.40;;;;;;;18.36;40.04;100456.67;117385;1185;22913;-56
2022/05/13 00:10:52;;;;;;;9.20;4.60;;;;;;;18.33;40.09;100455.58;117467;1185;22982;-57
2022/05/13 00:13:21;;;;;;;4.90;3.90;;;;;;;18.32;40.14;100451.39;117370;1185;22087;-51
2022/05/13 00:15:50;;;;;;;6.90;4.90;;;;;;;18.30;40.14;100456.96;117352;1186;23445;-51
2022/05/13 00:18:18;;;;;;;5.30;4.50;;;;;;;18.29;40.12;100454.52;117407;1184;22916;-51
2022/05/13 00:20:47;;;;;;;5.70;4.00;;;;;;;18.27;40.23;100456.52;117358;1185;24257;-55
2022/05/13 00:23:15;;;;;;;5.40;4.20;;;;;;;18.26;40.24;100454.46;117466;1185;23535;-50
2022/05/13 00:25:44;;;;;;;8.60;4.90;;;;;;;18.24;40.27;100452.23;117303;1185;23541;-55
2022/05/13 00:28:14;;;;;;;7.20;4.70;;;;;;;18.22;40.35;100454.27;117464;1179;21846;-50
2022/05/13 00:30:44;;;;;;;8.40;4.40;;;;;;;18.20;40.39;100454.17;117435;1186;24882;-54
2022/05/13 00:33:12;;;;;;;7.00;4.60;;;;;;;18.18;40.42;100457.64;117357;1182;21848;-51
2022/05/13 00:35:41;;;;;;;5.10;4.00;;;;;;;18.16;40.52;100457.88;117335;1185;23570;-51
2022/05/13 00:38:09;;;;;;;7.10;4.30;;;;;;;18.13;40.68;100457.83;117480;1185;21839;-55
2022/05/13 00:40:38;;;;;;;6.90;4.60;;;;;;;18.10;40.61;100456.90;117423;1185;24156;-55
2022/05/13 00:43:09;;;;;;;6.30;4.50;;;;;;;18.07;40.72;100457.58;117558;1186;21888;-50
2022/05/13 00:45:37;;;;;;;6.50;4.20;;;;;;;18.05;40.62;100457.13;117420;1184;21913;-51
2022/05/13 00:48:07;;;;;;;5.90;3.90;;;;;;;18.04;40.77;100455.05;117338;1186;21848;-56
2022/05/13 00:50:37;;;;;;;7.40;4.60;;;;;;;18.01;40.74;100450.89;117462;1185;23999;-51
2022/05/13 00:53:12;;;;;;;6.60;4.60;;;;;;;17.99;40.79;100452.22;117423;1186;23624;-51
2022/05/13 00:55:43;;;;;;;8.20;4.90;;;;;;;17.95;40.78;100451.64;117513;1185;22616;-51
2022/05/13 00:58:13;;;;;;;9.20;5.00;;;;;;;17.90;41.00;100452.75;117430;1185;22720;-55
2022/05/13 01:00:42;;;;;;;7.40;5.10;;;;;;;17.85;40.87;100456.86;117503;1185;22921;-51
2022/05/13 01:03:11;;;;;;;10.70;4.50;;;;;;;17.83;40.91;100463.13;117559;1185;23518;-51
2022/05/13 01:05:41;;;;;;;8.40;4.80;;;;;;;17.82;40.96;100464.08;117260;1184;21901;-51
2022/05/13 01:08:11;;;;;;;7.40;4.70;;;;;;;17.80;40.91;100464.15;117435;1184;23441;-51
2022/05/13 01:10:40;;;;;;;;;;;;;;;17.80;41.03;100461.69;117426;1186;22954;-51
2022/05/13 01:13:12;;;;;;;7.70;4.40;;;;;;;17.77;41.06;100460.19;117500;1181;22982;-52
2022/05/13 01:15:41;;;;;;;6.90;4.10;;;;;;;17.73;41.01;100460.38;117459;1184;21857;-56
2022/05/13 01:18:12;;;;;;;7.10;4.60;;;;;;;17.70;41.15;100463.30;117342;1186;21932;-56
2022/05/13 01:20:46;;;;;;;5.80;4.60;;;;;;;17.69;41.17;100459.08;117348;1186;23464;-56
2022/05/13 01:23:19;;;;;;;10.00;4.90;;;;;;;17.68;41.15;100471.19;117294;1186;23592;-56
2022/05/13 01:25:52;;;;;;;7.30;4.80;;;;;;;17.66;41.25;100466.64;117533;1185;21896;-56
2022/05/13 01:28:41;;;;;;;8.00;4.40;;;;;;;17.65;41.29;100458.54;117489;1185;23553;-52
2022/05/13 01:31:12;;;;;;;12.10;5.20;;;;;;;17.65;41.24;100458.91;117430;1186;23578;-51
2022/05/13 01:33:41;;;;;;;6.90;4.60;;;;;;;17.64;41.30;100461.61;117384;1185;21894;-55
2022/05/13 01:36:10;;;;;;;6.30;4.00;;;;;;;17.61;41.33;100459.77;117486;1185;24294;-53
2022/05/13 01:38:39;;;;;;;8.50;4.70;;;;;;;17.58;41.35;100461.69;117355;1183;21878;-53
2022/05/13 01:41:09;;;;;;;8.10;4.90;;;;;;;17.53;41.31;100465.77;117556;1186;23047;-56
2022/05/13 01:43:37;;;;;;;7.50;4.30;;;;;;;17.49;41.38;100465.77;117423;1185;21848;-52
2022/05/13 01:46:05;;;;;;;8.10;4.60;;;;;;;17.45;41.48;100467.00;117427;1185;21960;-51
2022/05/13 01:48:35;;;;;;;13.60;5.20;;;;;;;17.43;41.51;100470.63;117515;1186;24204;-51
2022/05/13 01:51:03;;;;;;;10.80;5.00;;;;;;;17.40;41.50;100471.23;117542;1185;21883;-52
2022/05/13 01:53:32;;;;;;;7.80;5.20;;;;;;;17.39;41.56;100466.67;117382;1185;23566;-53
2022/05/13 01:56:00;;;;;;;8.40;4.80;;;;;;;17.37;41.53;100466.19;117404;1185;23544;-56
2022/05/13 01:58:36;;;;;;;6.50;4.50;;;;;;;17.36;41.59;100466.42;117500;1184;24197;-51
2022/05/13 02:01:05;;;;;;;9.20;4.80;;;;;;;17.35;41.71;100466.29;117479;1185;24135;-55
2022/05/13 02:03:46;;;;;;;7.50;4.40;;;;;;;17.34;41.70;100473.96;117457;1185;23480;-55
2022/05/13 02:06:22;;;;;;;7.40;4.50;;;;;;;17.33;41.68;100483.05;117368;1186;21846;-52
2022/05/13 02:08:55;;;;;;;5.60;4.40;;;;;;;17.32;41.77;100485.55;117347;1184;22517;-56
2022/05/13 02:11:26;;;;;;;8.90;4.70;;;;;;;17.31;41.82;100486.66;117270;1186;21857;-56
2022/05/13 02:13:54;;;;;;;5.40;4.70;;;;;;;17.31;41.76;100493.40;117332;1185;21839;-56
2022/05/13 02:16:23;;;;;;;7.40;4.70;;;;;;;17.30;41.85;100494.15;117390;1185;23593;-56
2022/05/13 02:18:53;;;;;;;7.70;4.50;;;;;;;17.30;41.91;100491.31;117339;1185;23805;-56
2022/05/13 02:21:21;;;;;;;9.50;5.20;;;;;;;17.31;41.86;100494.64;117306;1186;21947;-56
2022/05/13 02:23:49;;;;;;;15.70;5.50;;;;;;;17.32;41.92;100492.33;117326;1185;22630;-56
2022/05/13 02:26:17;;;;;;;14.40;4.90;;;;;;;17.32;42.02;100491.77;117547;1185;21852;-56
2022/05/13 02:28:46;;;;;;;8.50;4.80;;;;;;;17.35;42.06;100497.35;117478;1186;23543;-56
2022/05/13 02:31:15;;;;;;;12.10;5.80;;;;;;;17.37;42.03;100499.77;117373;1185;23541;-56
2022/05/13 02:33:44;;;;;;;17.20;5.90;;;;;;;17.35;42.09;100505.69;117441;1185;21840;-56
2022/05/13 02:36:13;;;;;;;8.50;4.40;;;;;;;17.30;42.23;100508.89;117469;1186;22921;-56
2022/05/13 02:38:41;;;;;;;15.30;5.10;;;;;;;17.28;42.14;100511.44;117368;1185;23538;-56
2022/05/13 02:41:12;;;;;;;9.20;5.10;;;;;;;17.26;42.21;100520.04;117350;1189;21912;-56
2022/05/13 02:43:46;;;;;;;9.40;5.20;;;;;;;17.23;42.33;100518.17;117357;1186;23567;-56
2022/05/13 02:46:17;;;;;;;6.70;4.70;;;;;;;17.20;42.29;100518.86;117388;1185;23546;-56
2022/05/13 02:48:45;;;;;;;7.90;4.70;;;;;;;17.22;42.16;100518.79;117290;1186;23465;-56
2022/05/13 02:51:15;;;;;;;7.30;4.70;;;;;;;17.21;42.23;100515.96;117349;1188;23202;-57
2022/05/13 02:53:43;;;;;;;8.80;5.70;;;;;;;17.17;42.33;100514.72;117531;1185;22908;-56
2022/05/13 02:56:12;;;;;;;10.30;4.90;;;;;;;17.18;42.46;100510.04;117482;1185;21845;-56
2022/05/13 02:58:44;;;;;;;8.60;4.80;;;;;;;17.22;42.39;100505.09;117389;1186;23544;-56
2022/05/13 03:01:14;;;;;;;15.20;5.90;;;;;;;17.23;42.46;100505.93;117401;1185;22922;-56
2022/05/13 03:03:44;;;;;;;17.10;5.40;;;;;;;17.26;42.57;100509.05;117486;1186;21849;-56
2022/05/13 03:06:12;;;;;;;14.70;5.00;;;;;;;17.29;42.64;100510.14;117416;1185;23475;-56
2022/05/13 03:08:40;;;;;;;10.40;5.60;;;;;;;17.39;42.54;100508.20;117359;1186;23542;-56
2022/05/13 03:11:10;;;;;;;11.40;4.50;;;;;;;17.44;42.57;100505.87;117356;1185;23564;-56
2022/05/13 03:13:38;;;;;;;7.70;4.50;;;;;;;17.48;42.51;100505.37;117340;1185;21924;-56
2022/05/13 03:16:09;;;;;;;14.50;5.90;;;;;;;17.51;42.60;100505.73;117295;1186;22838;-52
2022/05/13 03:18:40;;;;;;;9.70;5.00;;;;;;;17.55;42.60;100506.65;117250;1187;21858;-56
2022/05/13 03:21:08;;;;;;;11.70;5.30;;;;;;;17.59;42.64;100505.82;117316;1183;23545;-52
2022/05/13 03:23:38;;;;;;;9.30;4.80;;;;;;;17.60;42.65;100507.19;117368;1186;22816;-55
2022/05/13 03:26:06;;;;;;;13.70;5.00;;;;;;;17.63;42.70;100505.30;117338;1186;22832;-52
2022/05/13 03:28:35;;;;;;;8.90;4.20;;;;;;;17.67;42.67;100506.70;117423;1185;24157;-56
2022/05/13 03:31:03;;;;;;;14.70;5.40;;;;;;;17.72;42.74;100513.64;117545;1185;24263;-54
2022/05/13 03:33:32;;;;;;;7.50;4.80;;;;;;;17.79;42.82;100521.17;117399;1185;23456;-52
2022/05/13 03:36:01;;;;;;;9.00;4.40;;;;;;;17.86;42.86;100523.04;117407;1185;24166;-52
2022/05/13 03:38:29;;;;;;;12.70;4.90;;;;;;;17.93;42.84;100525.05;117496;1188;21860;-54
2022/05/13 03:40:58;;;;;;;21.00;5.80;;;;;;;18.03;42.95;100532.66;117417;1186;23555;-52
2022/05/13 03:43:28;;;;;;;10.70;4.40;;;;;;;18.11;42.99;100538.17;117326;1186;23568;-53
2022/05/13 03:45:56;;;;;;;9.80;4.80;;;;;;;18.20;42.88;100546.70;117294;1186;23563;-55
2022/05/13 03:48:24;;;;;;;7.00;4.60;;;;;;;18.27;42.94;100547.83;117309;1186;23456;-55
2022/05/13 03:50:53;;;;;;;5.80;4.80;;;;;;;18.36;42.97;100542.52;117364;1185;23637;-54
2022/05/13 03:53:21;;;;;;;5.70;4.10;;;;;;;18.44;42.98;100551.39;117379;1185;22936;-55
2022/05/13 03:55:49;;;;;;;7.90;4.90;;;;;;;18.48;43.17;100552.11;117411;1185;24710;-52
2022/05/13 03:58:18;;;;;;;10.60;4.60;;;;;;;18.57;43.30;100545.85;117540;1185;23435;-53
2022/05/13 04:00:46;;;;;;;10.00;3.80;;;;;;;18.69;43.21;100548.02;117311;1185;21888;-55
2022/05/13 04:03:15;;;;;;;6.50;3.90;;;;;;;18.82;43.37;100548.88;117295;1185;24195;-53
2022/05/13 04:11:20;;;;;;;8.30;3.60;;;;;;;19.29;43.44;100548.77;117346;1185;23675;-56
2022/05/13 04:16:35;;;;;;;52.90;8.10;;;;;;;19.71;43.36;100551.27;117501;1186;23695;-54
2022/05/13 04:19:04;;;;;;;8.20;3.70;;;;;;;19.89;43.27;100549.02;117565;1186;22646;-55
2022/05/13 04:21:35;;;;;;;8.40;3.30;;;;;;;20.04;43.38;100547.58;117368;1186;23544;-53
2022/05/13 04:24:06;;;;;;;5.10;3.80;;;;;;;20.20;43.42;100542.33;117486;1184;23458;-54
2022/05/13 04:26:35;;;;;;;5.60;3.60;;;;;;;20.37;43.44;100534.92;117536;1185;23458;-55
2022/05/13 04:29:05;;;;;;;7.00;3.80;;;;;;;20.53;43.34;100530.53;117358;1186;23541;-53
2022/05/13 04:31:37;;;;;;;8.80;3.60;;;;;;;20.70;43.29;100524.48;117435;1185;23258;-54
2022/05/13 04:34:06;;;;;;;6.90;3.90;;;;;;;20.88;43.24;100522.70;117460;1185;22644;-53
2022/05/13 04:36:35;;;;;;;6.00;3.40;;;;;;;21.07;43.27;100530.95;117371;1186;21859;-53
2022/05/13 04:39:03;;;;;;;9.70;3.70;;;;;;;21.26;43.30;100533.33;117318;1180;23009;-55
2022/05/13 04:44:20;;;;;;;6.30;3.40;;;;;;;21.72;43.22;100528.67;117371;1185;23448;-53
2022/05/13 04:46:48;;;;;;;6.00;2.90;;;;;;;21.97;43.34;100529.24;117298;1186;23542;-52
2022/05/13 04:49:16;;;;;;;6.50;3.80;;;;;;;22.23;43.40;100527.02;117422;1185;24158;-53
2022/05/13 04:51:49;;;;;;;7.00;3.60;;;;;;;22.48;43.19;100525.20;117559;1186;21888;-56
2022/05/13 04:54:17;;;;;;;7.00;3.60;;;;;;;22.77;43.27;100527.91;117480;1184;23688;-55
2022/05/13 04:56:46;;;;;;;67.60;9.00;;;;;;;23.03;43.09;100527.59;117363;1185;21850;-54
2022/05/13 04:59:14;;;;;;;9.60;4.10;;;;;;;23.24;42.96;100530.96;117408;1186;23582;-55
2022/05/13 05:01:43;;;;;;;11.20;3.80;;;;;;;23.46;42.90;100538.33;117519;1185;21847;-55
2022/05/13 05:04:12;;;;;;;9.40;3.50;;;;;;;23.69;42.83;100540.31;117450;1185;23540;-54
2022/05/13 05:06:41;;;;;;;7.60;3.20;;;;;;;23.88;42.71;100540.84;117356;1186;23541;-54
2022/05/13 05:09:10;;;;;;;6.60;3.20;;;;;;;24.03;42.45;100546.38;117505;1183;21883;-55
2022/05/13 05:11:39;;;;;;;5.80;3.70;;;;;;;24.17;42.34;100551.39;117528;1185;23157;-56
2022/05/13 05:14:08;;;;;;;6.40;3.50;;;;;;;24.35;42.36;100551.08;117425;1184;23564;-56
2022/05/13 05:16:42;;;;;;;12.80;3.60;;;;;;;24.56;42.32;100547.65;117370;1184;21847;-56
2022/05/13 05:19:12;;;;;;;9.60;3.30;;;;;;;24.79;42.15;100547.42;117507;1183;23576;-56
2022/05/13 05:21:41;;;;;;;;;;;;;;;24.97;42.02;100545.77;117525;1185;22907;-56
2022/05/13 05:24:09;;;;;;;5.80;3.30;;;;;;;25.17;41.83;100549.20;117301;1186;21975;-54
2022/05/13 05:26:38;;;;;;;9.50;3.80;;;;;;;25.31;41.76;100549.46;117396;1186;23656;-54
2022/05/13 05:29:06;;;;;;;6.40;3.20;;;;;;;25.42;41.48;100553.23;117534;1185;23538;-55
2022/05/13 05:31:35;;;;;;;10.90;3.30;;;;;;;25.53;41.45;100559.83;117371;1185;23587;-54
2022/05/13 05:34:03;;;;;;;6.90;3.70;;;;;;;25.64;41.35;100559.33;117328;1185;23493;-55
2022/05/13 05:36:32;;;;;;;6.30;3.90;;;;;;;25.79;41.37;100553.23;117325;1186;21865;-55
2022/05/13 05:39:00;;;;;;;9.70;3.80;;;;;;;25.97;41.20;100548.35;117332;1185;24293;-53
2022/05/13 05:41:29;;;;;;;7.00;3.90;;;;;;;26.12;41.15;100545.06;117333;1189;24159;-53
2022/05/13 05:43:57;;;;;;;9.40;4.50;;;;;;;26.28;41.00;100552.52;117366;1186;21853;-54
2022/05/13 05:46:26;;;;;;;7.00;4.10;;;;;;;26.43;40.87;100552.09;117432;1186;23088;-53
2022/05/13 05:48:55;;;;;;;16.60;4.50;;;;;;;26.58;40.81;100554.91;117384;1185;23546;-54
2022/05/13 05:51:23;;;;;;;6.60;3.80;;;;;;;26.74;40.72;100562.33;117394;1186;23580;-54
2022/05/13 05:59:26;;;;;;;7.50;3.80;;;;;;;27.19;40.34;100556.73;118436;1186;23557;-54
2022/05/13 06:01:54;;;;;;;9.10;4.30;;;;;;;27.38;40.33;100559.14;117322;1185;23551;-54
2022/05/13 06:04:22;;;;;;;9.10;3.70;;;;;;;27.53;40.39;100561.59;118436;1184;23548;-54
2022/05/13 06:06:51;;;;;;;15.90;4.70;;;;;;;27.70;40.18;100563.29;117304;1186;23445;-54
2022/05/13 06:09:19;;;;;;;7.60;3.70;;;;;;;27.87;40.12;100565.88;117346;1186;24138;-54
2022/05/13 06:11:47;;;;;;;6.00;4.00;;;;;;;28.00;40.00;100561.73;117374;1186;23542;-55
2022/05/13 06:14:16;;;;;;;9.70;4.30;;;;;;;28.10;39.87;100563.43;117372;1185;23526;-54
2022/05/13 06:16:46;;;;;;;11.10;3.60;;;;;;;28.22;39.70;100572.87;117393;1185;24138;-55
2022/05/13 06:19:15;;;;;;;;;;;;;;;28.37;39.70;100571.80;117394;1185;21854;-54
2022/05/13 06:21:44;;;;;;;10.20;4.00;;;;;;;28.55;39.68;100571.59;117387;1185;22916;-54
2022/05/13 06:24:12;;;;;;;8.90;3.70;;;;;;;28.72;39.60;100571.45;117378;1185;21845;-54
2022/05/13 06:26:41;;;;;;;8.70;3.50;;;;;;;28.95;39.71;100572.92;117390;1185;23557;-55
2022/05/13 06:29:09;;;;;;;7.50;3.60;;;;;;;29.25;39.55;100572.48;117307;1186;23663;-54
2022/05/13 06:31:38;;;;;;;7.70;3.50;;;;;;;29.55;39.41;100568.02;117298;1186;23558;-54
2022/05/13 06:34:07;;;;;;;10.10;3.60;;;;;;;29.85;39.52;100563.92;117383;1185;21938;-54
2022/05/13 06:36:36;;;;;;;10.80;3.50;;;;;;;30.12;39.22;100563.44;117363;1185;21845;-55
2022/05/13 06:39:05;;;;;;;8.80;4.10;;;;;;;30.33;38.97;100562.06;117310;1185;22671;-56
2022/05/13 06:41:37;;;;;;;8.70;3.40;;;;;;;30.49;38.90;100566.94;117349;1182;23004;-55
2022/05/13 06:44:09;;;;;;;12.80;3.90;;;;;;;30.64;38.67;100567.52;117409;1183;23433;-56
2022/05/13 06:46:39;;;;;;;10.80;3.30;;;;;;;30.74;38.61;100566.72;117527;1185;22947;-56
2022/05/13 06:49:10;;;;;;;9.00;4.20;;;;;;;30.90;38.63;100568.70;117500;1186;22960;-55
2022/05/13 06:51:40;;;;;;;;;;;;;;;31.04;38.45;100570.66;117340;1186;21877;-55
2022/05/13 06:54:09;;;;;;;7.00;3.50;;;;;;;31.14;38.26;100569.11;117518;1185;22796;-55
2022/05/13 06:56:39;;;;;;;;;;;;;;;31.30;38.34;100573.58;117525;1185;21837;-56
2022/05/13 06:59:08;;;;;;;7.70;3.20;;;;;;;31.45;38.17;100573.02;117493;1186;22910;-54
2022/05/13 07:01:41;;;;;;;8.90;3.20;;;;;;;31.71;38.31;100571.45;117347;1184;21865;-54
2022/05/13 07:04:09;;;;;;;7.40;3.50;;;;;;;32.07;38.27;100570.58;117412;1185;21858;-54
2022/05/13 07:06:43;;;;;;;9.00;3.30;;;;;;;32.34;37.91;100565.44;117375;1185;23548;-55
2022/05/13 07:09:11;;;;;;;10.30;3.30;;;;;;;32.58;37.81;100568.05;117373;1184;22646;-55
2022/05/13 07:11:40;;;;;;;9.60;3.50;;;;;;;32.88;37.73;100570.08;117542;1186;22063;-54
2022/05/13 07:14:12;;;;;;;7.60;3.00;;;;;;;33.10;37.49;100572.46;117349;1185;23566;-55
2022/05/13 07:16:41;;;;;;;10.70;3.40;;;;;;;33.36;37.53;100576.31;117322;1185;22921;-55
2022/05/13 07:19:09;;;;;;;8.30;3.40;;;;;;;33.66;37.35;100574.84;117371;1180;24264;-55
2022/05/13 07:21:38;;;;;;;7.00;2.80;;;;;;;33.96;37.27;100574.52;117463;1186;21870;-54
2022/05/13 07:24:06;;;;;;;6.90;2.70;;;;;;;34.29;37.20;100576.08;117398;1185;21860;-55
2022/05/13 07:26:35;;;;;;;7.10;2.80;;;;;;;34.61;36.80;100573.05;117326;1185;22802;-55
2022/05/13 07:29:05;;;;;;;5.90;3.00;;;;;;;34.89;36.69;100570.28;117419;1185;23648;-54
2022/05/13 07:31:34;;;;;;;4.60;2.70;;;;;;;35.23;36.89;100569.49;117375;1185;21857;-55
2022/05/13 07:34:03;;;;;;;7.90;3.40;;;;;;;35.54;36.49;100573.92;117358;1186;24227;-55
2022/05/13 07:36:32;;;;;;;5.70;2.90;;;;;;;35.77;36.18;100574.19;117370;1186;22908;-55
2022/05/13 07:41:48;;;;;;;6.30;2.80;;;;;;;36.05;35.57;100570.96;117414;1185;23814;-55
2022/05/13 07:44:16;;;;;;;8.10;2.80;;;;;;;35.83;35.18;100575.02;117419;1185;24248;-55
2022/05/13 07:46:45;;;;;;;12.40;3.20;;;;;;;35.58;34.97;100575.69;117418;1186;23545;-55
2022/05/13 07:49:15;;;;;;;6.90;3.20;;;;;;;35.31;34.90;100575.37;117308;1186;21899;-55
2022/05/13 07:51:44;;;;;;;4.50;2.70;;;;;;;35.15;34.82;100576.73;117339;1185;23579;-55
2022/05/13 07:54:13;;;;;;;8.60;2.90;;;;;;;34.98;34.64;100579.34;117336;1186;23544;-55
2022/05/13 07:56:41;;;;;;;12.40;3.90;;;;;;;34.84;34.64;100577.98;117437;1186;22088;-55
2022/05/13 07:59:10;;;;;;;9.40;2.70;;;;;;;34.77;34.51;100581.64;117459;1186;23564;-55
2022/05/13 08:01:39;;;;;;;8.10;2.80;;;;;;;34.63;34.34;100578.73;117555;1186;22966;-55
2022/05/13 08:04:08;;;;;;;6.50;3.10;;;;;;;34.44;34.21;100582.06;117358;1185;23540;-56
2022/05/13 08:06:37;;;;;;;7.60;3.10;;;;;;;34.27;33.98;100584.47;117517;1185;21837;-55
2022/05/13 08:09:06;;;;;;;5.40;3.00;;;;;;;34.12;34.05;100583.84;117471;1186;23560;-55
2022/05/13 08:11:35;;;;;;;;;;;;;;;34.11;34.08;100583.67;117548;1185;21853;-55
2022/05/13 08:14:07;;;;;;;6.90;2.90;;;;;;;34.27;34.25;100583.91;117468;1185;23540;-55
2022/05/13 08:16:37;;;;;;;8.10;3.20;;;;;;;34.51;34.50;100577.83;117323;1185;23569;-56
2022/05/13 08:19:07;;;;;;;10.60;3.40;;;;;;;34.82;34.71;100577.81;117389;1186;21839;-56
2022/05/13 08:21:35;;;;;;;5.50;3.00;;;;;;;35.11;34.30;100576.47;117459;1185;21868;-56
2022/05/13 08:24:04;;;;;;;6.90;3.10;;;;;;;35.30;34.31;100577.39;117404;1186;23619;-56
2022/05/13 08:26:32;;;;;;;5.00;2.40;;;;;;;35.57;34.24;100571.73;117402;1185;22908;-56
2022/05/13 08:29:01;;;;;;;6.20;3.20;;;;;;;35.95;34.24;100574.63;117407;1186;23607;-56
2022/05/13 08:31:29;;;;;;;7.70;3.40;;;;;;;36.35;34.12;100574.69;117391;1184;21867;-56
2022/05/13 08:33:59;;;;;;;4.50;2.40;;;;;;;36.71;33.82;100570.48;117515;1185;22623;-56
2022/05/13 08:36:28;;;;;;;5.30;2.40;;;;;;;36.84;33.51;100573.99;117356;1185;23579;-56
2022/05/13 08:38:56;;;;;;;4.50;2.60;;;;;;;36.94;33.37;100570.82;117325;1185;21902;-56
2022/05/13 08:41:45;;;;;;;6.00;2.70;;;;;;;36.93;32.98;100569.58;117276;1184;23567;-56
2022/05/13 08:44:15;;;;;;;12.50;3.60;;;;;;;36.75;32.78;100568.83;117437;1185;24698;-56
2022/05/13 08:47:14;;;;;;;7.70;2.50;;;;;;;36.75;33.04;100567.44;117389;1184;23552;-56
2022/05/13 08:50:13;;;;;;;6.20;2.80;;;;;;;36.87;32.78;100567.98;117535;1184;21865;-56
2022/05/13 08:53:09;;;;;;;5.40;2.80;;;;;;;36.81;32.58;100571.29;117236;1186;23442;-55
2022/05/13 08:55:42;;;;;;;7.40;2.90;;;;;;;36.66;32.35;100574.27;117230;1186;21943;-57
2022/05/13 08:58:15;;;;;;;5.00;2.30;;;;;;;36.49;32.33;100573.63;117151;1189;22184;-56
2022/05/13 09:00:46;;;;;;;6.40;2.50;;;;;;;36.30;32.29;100575.99;117428;1185;21837;-56
2022/05/13 09:03:22;;;;;;;5.30;2.70;;;;;;;36.12;32.15;100572.89;117239;1188;21871;-56
2022/05/13 09:06:00;;;;;;;4.40;2.90;;;;;;;35.95;32.06;100569.91;117338;1186;21852;-56
2022/05/13 09:08:37;;;;;;;4.50;2.70;;;;;;;35.76;31.75;100571.39;117345;1186;23520;-56
2022/05/13 09:11:37;;;;;;;5.20;2.70;;;;;;;35.56;31.67;100572.09;117347;1186;22639;-56
2022/05/13 09:14:27;;;;;;;5.50;2.60;;;;;;;35.32;31.79;100570.94;117427;1186;22902;-56
2022/05/13 09:17:32;;;;;;;5.50;2.30;;;;;;;35.08;31.66;100568.04;117463;1184;22641;-56
2022/05/13 09:20:08;;;;;;;4.80;2.50;;;;;;;34.93;31.77;100566.41;117451;1185;21865;-56
2022/05/13 09:22:49;;;;;;;7.80;3.10;;;;;;;34.86;31.72;100565.34;117317;1185;22620;-55
2022/05/13 09:25:47;;;;;;;8.90;3.00;;;;;;;34.78;31.77;100558.20;117365;1186;22927;-54
2022/05/13 09:28:15;;;;;;;5.20;2.50;;;;;;;34.75;31.61;100554.35;117412;1185;21848;-55
2022/05/13 09:30:53;;;;;;;6.90;2.90;;;;;;;34.89;31.99;100547.11;117331;1185;21859;-55
2022/05/13 09:33:34;;;;;;;7.30;3.10;;;;;;;35.17;32.23;100545.54;117153;1186;21851;-55
2022/05/13 09:36:06;;;;;;;9.00;2.70;;;;;;;35.55;32.10;100542.65;117403;1187;21848;-55
2022/05/13 09:38:44;;;;;;;11.50;2.90;;;;;;;35.96;32.15;100541.65;117341;1185;23586;-56
2022/05/13 09:41:14;;;;;;;4.70;2.50;;;;;;;36.28;31.85;100534.95;117378;1182;23585;-56
2022/05/13 09:43:51;;;;;;;6.10;2.80;;;;;;;36.40;31.88;100533.27;117356;1185;21882;-55
2022/05/13 09:46:39;;;;;;;9.70;3.10;;;;;;;36.64;31.83;100533.61;117285;1185;22713;-55
2022/05/13 09:49:17;;;;;;;5.50;3.10;;;;;;;37.14;32.04;100531.27;117278;1185;21899;-55
2022/05/13 09:51:57;;;;;;;8.00;3.10;;;;;;;37.67;32.02;100529.77;117287;1186;24233;-55
2022/05/13 09:54:31;;;;;;;8.80;2.80;;;;;;;38.14;31.87;100530.72;117341;1186;24159;-56
2022/05/13 09:57:14;;;;;;;6.30;2.80;;;;;;;38.48;31.60;100526.42;117372;1186;21894;-56
2022/05/13 09:59:55;;;;;;;6.00;2.90;;;;;;;38.83;31.47;100526.55;117366;1185;22805;-56
2022/05/13 10:02:29;;;;;;;5.50;2.60;;;;;;;39.10;31.21;100524.55;117329;1186;21848;-56
2022/05/13 10:05:16;;;;;;;8.00;2.70;;;;;;;38.96;30.67;100523.39;117372;1185;21890;-55
2022/05/13 10:07:51;;;;;;;14.80;3.10;;;;;;;38.74;30.37;100523.54;117362;1186;23606;-56
2022/05/13 10:16:27;;;;;;;5.60;2.40;;;;;;;37.26;29.92;100521.38;117317;1186;24151;-56
2022/05/13 10:19:10;;;;;;;6.90;3.10;;;;;;;36.96;29.77;100517.21;117322;1185;23348;-56
2022/05/13 10:22:10;;;;;;;9.50;3.10;;;;;;;36.78;29.70;100515.86;117327;1186;21902;-56
2022/05/13 10:25:00;;;;;;;4.10;2.70;;;;;;;36.62;29.81;100517.05;117260;1189;21892;-56
2022/05/13 10:27:35;;;;;;;6.40;2.60;;;;;;;36.52;29.73;100517.56;117184;1188;21855;-56
2022/05/13 10:30:16;;;;;;;6.30;2.90;;;;;;;36.41;30.03;100513.88;117422;1183;21896;-56
2022/05/13 10:32:53;;;;;;;7.50;2.80;;;;;;;36.43;29.97;100509.48;117312;1186;21849;-56
2022/05/13 10:35:23;;;;;;;6.80;2.70;;;;;;;36.49;30.08;100507.73;117412;1186;21851;-57
2022/05/13 10:38:03;;;;;;;6.90;2.70;;;;;;;36.55;29.85;100502.77;117346;1185;21852;-57
2022/05/13 10:40:35;;;;;;;6.50;2.90;;;;;;;36.56;29.74;100497.66;117191;1189;21863;-56
2022/05/13 10:43:14;;;;;;;5.50;2.50;;;;;;;36.46;29.91;100494.46;117366;1185;22932;-56
2022/05/13 10:45:44;;;;;;;10.80;2.80;;;;;;;36.37;29.78;100498.37;117299;1185;22956;-57
2022/05/13 10:48:29;;;;;;;8.10;3.10;;;;;;;36.33;29.92;100499.13;117528;1186;22335;-57
2022/05/13 10:51:09;;;;;;;5.00;2.90;;;;;;;36.37;29.83;100498.16;117590;1188;23544;-57
2022/05/13 10:53:37;;;;;;;;;;;;;;;36.39;29.72;100491.55;117374;1186;21915;-57
2022/05/13 10:56:16;;;;;;;4.00;2.80;;;;;;;36.39;29.76;100492.26;117394;1185;23647;-56
2022/05/13 10:58:59;;;;;;;6.30;2.70;;;;;;;36.25;29.56;100491.56;117250;1185;23548;-57
2022/05/13 11:01:36;;;;;;;3.90;2.90;;;;;;;35.92;29.22;100492.88;117314;1185;24162;-56
2022/05/13 11:04:26;;;;;;;7.10;3.20;;;;;;;35.53;28.88;100494.32;117410;1184;21845;-56
2022/05/13 11:07:31;;;;;;;3.60;2.80;;;;;;;35.20;29.23;100488.80;117362;1184;22106;-56
2022/05/13 11:10:30;;;;;;;6.20;3.20;;;;;;;35.03;29.23;100487.86;117459;1185;22645;-56
2022/05/13 11:13:17;;;;;;;7.90;3.00;;;;;;;34.88;29.23;100483.46;118215;1185;23550;-57
2022/05/13 11:15:51;;;;;;;7.40;2.80;;;;;;;34.78;29.35;100483.65;117281;1185;21841;-58
2022/05/13 11:18:38;;;;;;;4.70;2.60;;;;;;;34.89;29.66;100480.27;117334;1185;21995;-57
2022/05/13 11:21:21;;;;;;;5.10;2.90;;;;;;;35.12;29.54;100473.34;117399;1185;23553;-55
2022/05/13 11:27:12;;;;;;;6.80;2.90;;;;;;;35.68;29.57;100465.42;117381;1185;22016;-57
2022/05/13 11:29:52;;;;;;;6.10;3.20;;;;;;;35.94;29.50;100464.36;117321;1184;23516;-57
2022/05/13 11:32:46;;;;;;;4.50;2.50;;;;;;;36.07;29.44;100461.70;117342;1187;21855;-56
2022/05/13 11:35:39;;;;;;;5.50;2.60;;;;;;;36.10;29.48;100457.61;117337;1185;23544;-56
2022/05/13 11:38:24;;;;;;;4.80;2.70;;;;;;;36.23;29.44;100456.55;117361;1185;23567;-57
2022/05/13 11:41:08;;;;;;;10.10;3.00;;;;;;;36.37;29.31;100450.20;117349;1186;23550;-57
2022/05/13 11:44:02;;;;;;;14.80;3.90;;;;;;;36.62;29.56;100449.45;117345;1186;23563;-57
2022/05/13 11:46:59;;;;;;;18.70;4.20;;;;;;;37.10;29.65;100446.13;117365;1185;21855;-56
2022/05/13 11:49:35;;;;;;;6.10;3.10;;;;;;;37.58;29.54;100443.23;117356;1185;21862;-56
2022/05/13 11:52:11;;;;;;;5.00;2.50;;;;;;;37.83;29.29;100435.00;117343;1185;21849;-57
2022/05/13 11:54:42;;;;;;;6.40;3.30;;;;;;;37.95;29.03;100434.60;117356;1185;24098;-56
2022/05/13 11:57:16;;;;;;;10.60;3.20;;;;;;;37.86;28.81;100432.23;117401;1183;23544;-57
2022/05/13 11:59:46;;;;;;;6.70;2.80;;;;;;;37.66;28.77;100435.25;117370;1185;21843;-57
2022/05/13 12:02:32;;;;;;;8.20;2.70;;;;;;;37.55;28.67;100430.45;117296;1185;21900;-58
2022/05/13 12:05:21;;;;;;;14.20;3.70;;;;;;;37.46;28.63;100429.26;117400;1176;23522;-56
2022/05/13 12:08:08;;;;;;;11.70;3.30;;;;;;;37.40;28.74;100430.18;117465;1185;22922;-57
2022/05/13 12:11:03;;;;;;;12.00;3.40;;;;;;;37.24;28.53;100427.98;117361;1185;23585;-57